sensor_id;sensor_type;location;lat;lon;timestamp;pressure;altitude;pressure_sealevel;temperature
19040;BMP180;9652;49.014;12.052;2023-06-22T00:01:18;98052.00;;;22.50
19040;BMP180;9652;49.014;12.052;2023-06-22T00:03:46;98044.00;;;22.40
19040;BMP180;9652;49.014;12.052;2023-06-22T00:06:14;98039.00;;;22.40
19040;BMP180;9652;49.014;12.052;2023-06-22T00:08:41;98036.00;;;22.40
19040;BMP180;9652;49.014;12.052;2023-06-22T00:11:08;98031.00;;;22.40
19040;BMP180;9652;49.014;12.052;2023-06-22T00:13:38;98025.00;;;22.30
19040;BMP180;9652;49.014;12.052;2023-06-22T00:16:05;98027.00;;;22.30
19040;BMP180;9652;49.014;12.052;2023-06-22T00:18:32;98027.00;;;22.30
19040;BMP180;9652;49.014;12.052;2023-06-22T00:21:00;98031.00;;;22.30
19040;BMP180;9652;49.014;12.052;2023-06-22T00:23:27;98021.00;;;22.30
19040;BMP180;9652;49.014;12.052;2023-06-22T00:25:54;98018.00;;;22.30
19040;BMP180;9652;49.014;12.052;2023-06-22T00:28:21;97999.00;;;22.20
19040;BMP180;9652;49.014;12.052;2023-06-22T00:30:50;97993.00;;;22.20
19040;BMP180;9652;49.014;12.052;2023-06-22T00:33:18;97990.00;;;22.20
19040;BMP180;9652;49.014;12.052;2023-06-22T00:35:45;97982.00;;;22.20
19040;BMP180;9652;49.014;12.052;2023-06-22T00:38:12;97975.00;;;22.20
19040;BMP180;9652;49.014;12.052;2023-06-22T00:40:41;97973.00;;;22.20
19040;BMP180;9652;49.014;12.052;2023-06-22T00:43:08;97981.00;;;22.10
19040;BMP180;9652;49.014;12.052;2023-06-22T00:45:36;97981.00;;;22.10
19040;BMP180;9652;49.014;12.052;2023-06-22T00:48:06;97972.00;;;22.10
19040;BMP180;9652;49.014;12.052;2023-06-22T00:50:35;97971.00;;;22.10
19040;BMP180;9652;49.014;12.052;2023-06-22T00:53:05;97977.00;;;22.10
19040;BMP180;9652;49.014;12.052;2023-06-22T00:55:35;97979.00;;;22.00
19040;BMP180;9652;49.014;12.052;2023-06-22T00:58:05;97974.00;;;22.00
19040;BMP180;9652;49.014;12.052;2023-06-22T01:00:36;97967.00;;;22.00
19040;BMP180;9652;49.014;12.052;2023-06-22T01:03:04;97967.00;;;22.00
19040;BMP180;9652;49.014;12.052;2023-06-22T01:05:35;97974.00;;;22.00
19040;BMP180;9652;49.014;12.052;2023-06-22T01:08:18;97968.00;;;21.90
19040;BMP180;9652;49.014;12.052;2023-06-22T01:10:53;97970.00;;;21.90
19040;BMP180;9652;49.014;12.052;2023-06-22T01:13:29;97972.00;;;21.90
19040;BMP180;9652;49.014;12.052;2023-06-22T01:16:03;97973.00;;;21.80
19040;BMP180;9652;49.014;12.052;2023-06-22T01:18:36;97980.00;;;21.80
19040;BMP180;9652;49.014;12.052;2023-06-22T01:21:07;97978.00;;;21.80
19040;BMP180;9652;49.014;12.052;2023-06-22T01:23:54;97979.00;;;21.80
19040;BMP180;9652;49.014;12.052;2023-06-22T01:26:36;97969.00;;;21.80
19040;BMP180;9652;49.014;12.052;2023-06-22T01:29:06;97974.00;;;21.80
19040;BMP180;9652;49.014;12.052;2023-06-22T01:31:35;97977.00;;;21.80
19040;BMP180;9652;49.014;12.052;2023-06-22T01:34:05;97983.00;;;21.70
19040;BMP180;9652;49.014;12.052;2023-06-22T01:36:37;97986.00;;;21.70
19040;BMP180;9652;49.014;12.052;2023-06-22T01:39:06;97976.00;;;21.70
19040;BMP180;9652;49.014;12.052;2023-06-22T01:41:37;97986.00;;;21.70
19040;BMP180;9652;49.014;12.052;2023-06-22T01:44:06;97985.00;;;21.70
19040;BMP180;9652;49.014;12.052;2023-06-22T01:46:36;97986.00;;;21.60
19040;BMP180;9652;49.014;12.052;2023-06-22T01:49:07;97988.00;;;21.60
19040;BMP180;9652;49.014;12.052;2023-06-22T01:51:36;97990.00;;;21.60
19040;BMP180;9652;49.014;12.052;2023-06-22T01:54:05;97995.00;;;21.60
19040;BMP180;9652;49.014;12.052;2023-06-22T01:56:32;98003.00;;;21.40
19040;BMP180;9652;49.014;12.052;2023-06-22T01:59:11;98006.00;;;21.50
19040;BMP180;9652;49.014;12.052;2023-06-22T02:01:45;98007.00;;;21.50
19040;BMP180;9652;49.014;12.052;2023-06-22T02:04:21;98010.00;;;21.50
19040;BMP180;9652;49.014;12.052;2023-06-22T02:06:55;98007.00;;;21.50
19040;BMP180;9652;49.014;12.052;2023-06-22T02:09:25;97994.00;;;21.50
19040;BMP180;9652;49.014;12.052;2023-06-22T02:11:56;97994.00;;;21.50
19040;BMP180;9652;49.014;12.052;2023-06-22T02:14:27;97998.00;;;21.50
19040;BMP180;9652;49.014;12.052;2023-06-22T02:16:54;98003.00;;;21.50
19040;BMP180;9652;49.014;12.052;2023-06-22T02:19:26;97987.00;;;21.40
19040;BMP180;9652;49.014;12.052;2023-06-22T02:21:53;97995.00;;;21.40
19040;BMP180;9652;49.014;12.052;2023-06-22T02:24:21;97998.00;;;21.40
19040;BMP180;9652;49.014;12.052;2023-06-22T02:26:49;97995.00;;;21.40
19040;BMP180;9652;49.014;12.052;2023-06-22T02:29:16;97991.00;;;21.40
19040;BMP180;9652;49.014;12.052;2023-06-22T02:31:45;97992.00;;;21.30
19040;BMP180;9652;49.014;12.052;2023-06-22T02:34:12;97987.00;;;21.30
19040;BMP180;9652;49.014;12.052;2023-06-22T02:36:44;97983.00;;;21.30
19040;BMP180;9652;49.014;12.052;2023-06-22T02:39:18;97971.00;;;21.30
19040;BMP180;9652;49.014;12.052;2023-06-22T02:41:46;97978.00;;;21.30
19040;BMP180;9652;49.014;12.052;2023-06-22T02:44:13;97980.00;;;21.30
19040;BMP180;9652;49.014;12.052;2023-06-22T02:46:40;97964.00;;;21.20
19040;BMP180;9652;49.014;12.052;2023-06-22T02:49:09;97965.00;;;21.20
19040;BMP180;9652;49.014;12.052;2023-06-22T02:51:39;97964.00;;;21.20
19040;BMP180;9652;49.014;12.052;2023-06-22T02:54:08;97970.00;;;21.20
19040;BMP180;9652;49.014;12.052;2023-06-22T02:56:36;97971.00;;;21.20
19040;BMP180;9652;49.014;12.052;2023-06-22T02:59:04;97967.00;;;21.10
19040;BMP180;9652;49.014;12.052;2023-06-22T03:01:37;97967.00;;;21.10
19040;BMP180;9652;49.014;12.052;2023-06-22T03:04:09;97975.00;;;21.10
19040;BMP180;9652;49.014;12.052;2023-06-22T03:06:37;97968.00;;;21.10
19040;BMP180;9652;49.014;12.052;2023-06-22T03:09:06;97966.00;;;21.10
19040;BMP180;9652;49.014;12.052;2023-06-22T03:11:35;97975.00;;;21.10
19040;BMP180;9652;49.014;12.052;2023-06-22T03:14:02;97971.00;;;21.00
19040;BMP180;9652;49.014;12.052;2023-06-22T03:16:30;97970.00;;;21.00
19040;BMP180;9652;49.014;12.052;2023-06-22T03:18:57;97978.00;;;21.00
19040;BMP180;9652;49.014;12.052;2023-06-22T03:21:28;97972.00;;;21.00
19040;BMP180;9652;49.014;12.052;2023-06-22T03:23:55;97962.00;;;21.00
19040;BMP180;9652;49.014;12.052;2023-06-22T03:26:23;97957.00;;;21.00
19040;BMP180;9652;49.014;12.052;2023-06-22T03:28:52;97963.00;;;21.00
19040;BMP180;9652;49.014;12.052;2023-06-22T03:31:19;97960.00;;;21.00
19040;BMP180;9652;49.014;12.052;2023-06-22T03:33:47;97965.00;;;21.00
19040;BMP180;9652;49.014;12.052;2023-06-22T03:36:15;97954.00;;;21.00
19040;BMP180;9652;49.014;12.052;2023-06-22T03:38:46;97958.00;;;21.00
19040;BMP180;9652;49.014;12.052;2023-06-22T03:41:14;97972.00;;;21.00
19040;BMP180;9652;49.014;12.052;2023-06-22T03:43:42;97973.00;;;21.00
19040;BMP180;9652;49.014;12.052;2023-06-22T03:46:09;97973.00;;;21.00
19040;BMP180;9652;49.014;12.052;2023-06-22T03:48:37;97976.00;;;21.00
19040;BMP180;9652;49.014;12.052;2023-06-22T03:51:04;97968.00;;;21.00
19040;BMP180;9652;49.014;12.052;2023-06-22T03:53:31;97971.00;;;21.00
19040;BMP180;9652;49.014;12.052;2023-06-22T03:56:00;97980.00;;;21.00
19040;BMP180;9652;49.014;12.052;2023-06-22T03:58:27;97981.00;;;21.00
19040;BMP180;9652;49.014;12.052;2023-06-22T04:00:58;97985.00;;;21.00
19040;BMP180;9652;49.014;12.052;2023-06-22T04:03:26;97979.00;;;21.00
19040;BMP180;9652;49.014;12.052;2023-06-22T04:05:53;97982.00;;;21.00
19040;BMP180;9652;49.014;12.052;2023-06-22T04:08:20;97989.00;;;21.10
19040;BMP180;9652;49.014;12.052;2023-06-22T04:10:48;97991.00;;;21.10
19040;BMP180;9652;49.014;12.052;2023-06-22T04:13:16;97986.00;;;21.10
19040;BMP180;9652;49.014;12.052;2023-06-22T04:15:43;97996.00;;;21.00
19040;BMP180;9652;49.014;12.052;2023-06-22T04:18:10;97997.00;;;21.20
19040;BMP180;9652;49.014;12.052;2023-06-22T04:20:37;98002.00;;;21.20
19040;BMP180;9652;49.014;12.052;2023-06-22T04:23:04;97998.00;;;21.30
19040;BMP180;9652;49.014;12.052;2023-06-22T04:25:31;97996.00;;;21.30
19040;BMP180;9652;49.014;12.052;2023-06-22T04:27:58;97980.00;;;21.40
19040;BMP180;9652;49.014;12.052;2023-06-22T04:30:33;98002.00;;;21.40
19040;BMP180;9652;49.014;12.052;2023-06-22T04:33:00;98012.00;;;21.50
19040;BMP180;9652;49.014;12.052;2023-06-22T04:35:27;98011.00;;;21.50
19040;BMP180;9652;49.014;12.052;2023-06-22T04:37:58;98003.00;;;21.60
19040;BMP180;9652;49.014;12.052;2023-06-22T04:40:25;98001.00;;;21.60
19040;BMP180;9652;49.014;12.052;2023-06-22T04:42:53;97986.00;;;21.60
19040;BMP180;9652;49.014;12.052;2023-06-22T04:45:20;97985.00;;;21.70
19040;BMP180;9652;49.014;12.052;2023-06-22T04:47:49;97981.00;;;21.70
19040;BMP180;9652;49.014;12.052;2023-06-22T04:50:16;97990.00;;;21.70
19040;BMP180;9652;49.014;12.052;2023-06-22T04:52:46;97978.00;;;21.70
19040;BMP180;9652;49.014;12.052;2023-06-22T04:55:14;97974.00;;;21.80
19040;BMP180;9652;49.014;12.052;2023-06-22T04:57:44;97980.00;;;21.80
19040;BMP180;9652;49.014;12.052;2023-06-22T05:00:15;97981.00;;;21.80
19040;BMP180;9652;49.014;12.052;2023-06-22T05:02:44;97986.00;;;21.90
19040;BMP180;9652;49.014;12.052;2023-06-22T05:05:13;97978.00;;;21.90
19040;BMP180;9652;49.014;12.052;2023-06-22T05:07:42;97974.00;;;21.90
19040;BMP180;9652;49.014;12.052;2023-06-22T05:10:11;97976.00;;;22.00
19040;BMP180;9652;49.014;12.052;2023-06-22T05:12:39;97972.00;;;22.00
19040;BMP180;9652;49.014;12.052;2023-06-22T05:15:08;97962.00;;;22.10
19040;BMP180;9652;49.014;12.052;2023-06-22T05:17:35;97957.00;;;22.10
19040;BMP180;9652;49.014;12.052;2023-06-22T05:20:09;97959.00;;;22.20
19040;BMP180;9652;49.014;12.052;2023-06-22T05:22:38;97961.00;;;22.20
19040;BMP180;9652;49.014;12.052;2023-06-22T05:25:08;97962.00;;;22.30
19040;BMP180;9652;49.014;12.052;2023-06-22T05:27:35;97962.00;;;22.40
19040;BMP180;9652;49.014;12.052;2023-06-22T05:30:06;97951.00;;;22.40
19040;BMP180;9652;49.014;12.052;2023-06-22T05:32:34;97956.00;;;22.50
19040;BMP180;9652;49.014;12.052;2023-06-22T05:35:02;97957.00;;;22.60
19040;BMP180;9652;49.014;12.052;2023-06-22T05:37:29;97959.00;;;22.60
19040;BMP180;9652;49.014;12.052;2023-06-22T05:39:57;97966.00;;;22.70
19040;BMP180;9652;49.014;12.052;2023-06-22T05:42:24;97963.00;;;22.80
19040;BMP180;9652;49.014;12.052;2023-06-22T05:44:52;97959.00;;;22.90
19040;BMP180;9652;49.014;12.052;2023-06-22T05:47:19;97965.00;;;22.90
19040;BMP180;9652;49.014;12.052;2023-06-22T05:49:47;97967.00;;;23.00
19040;BMP180;9652;49.014;12.052;2023-06-22T05:52:14;97973.00;;;23.10
19040;BMP180;9652;49.014;12.052;2023-06-22T05:54:41;97961.00;;;23.10
19040;BMP180;9652;49.014;12.052;2023-06-22T05:57:10;97952.00;;;23.20
19040;BMP180;9652;49.014;12.052;2023-06-22T05:59:37;97947.00;;;23.20
19040;BMP180;9652;49.014;12.052;2023-06-22T06:02:05;97940.00;;;23.30
19040;BMP180;9652;49.014;12.052;2023-06-22T06:04:32;97939.00;;;23.40
19040;BMP180;9652;49.014;12.052;2023-06-22T06:06:59;97939.00;;;23.40
19040;BMP180;9652;49.014;12.052;2023-06-22T06:09:26;97928.00;;;23.50
19040;BMP180;9652;49.014;12.052;2023-06-22T06:11:53;97929.00;;;23.60
19040;BMP180;9652;49.014;12.052;2023-06-22T06:14:22;97947.00;;;23.60
19040;BMP180;9652;49.014;12.052;2023-06-22T06:16:49;97932.00;;;23.70
19040;BMP180;9652;49.014;12.052;2023-06-22T06:19:16;97941.00;;;23.70
19040;BMP180;9652;49.014;12.052;2023-06-22T06:21:43;97932.00;;;23.80
19040;BMP180;9652;49.014;12.052;2023-06-22T06:24:10;97934.00;;;23.90
19040;BMP180;9652;49.014;12.052;2023-06-22T06:26:37;97921.00;;;23.90
19040;BMP180;9652;49.014;12.052;2023-06-22T06:29:04;97913.00;;;24.00
19040;BMP180;9652;49.014;12.052;2023-06-22T06:31:32;97907.00;;;24.00
19040;BMP180;9652;49.014;12.052;2023-06-22T06:33:59;97906.00;;;24.20
19040;BMP180;9652;49.014;12.052;2023-06-22T06:36:26;97916.00;;;24.20
19040;BMP180;9652;49.014;12.052;2023-06-22T06:38:53;97914.00;;;24.30
19040;BMP180;9652;49.014;12.052;2023-06-22T06:41:20;97902.00;;;24.40
19040;BMP180;9652;49.014;12.052;2023-06-22T06:43:47;97904.00;;;24.50
19040;BMP180;9652;49.014;12.052;2023-06-22T06:46:14;97906.00;;;24.60
19040;BMP180;9652;49.014;12.052;2023-06-22T06:48:43;97904.00;;;24.70
19040;BMP180;9652;49.014;12.052;2023-06-22T06:51:10;97905.00;;;24.80
19040;BMP180;9652;49.014;12.052;2023-06-22T06:53:38;97900.00;;;24.80
19040;BMP180;9652;49.014;12.052;2023-06-22T06:56:05;97913.00;;;24.90
19040;BMP180;9652;49.014;12.052;2023-06-22T06:58:32;97898.00;;;25.00
19040;BMP180;9652;49.014;12.052;2023-06-22T07:00:59;97902.00;;;25.10
19040;BMP180;9652;49.014;12.052;2023-06-22T07:03:26;97901.00;;;25.20
19040;BMP180;9652;49.014;12.052;2023-06-22T07:05:54;97896.00;;;25.20
19040;BMP180;9652;49.014;12.052;2023-06-22T07:08:22;97896.00;;;25.30
19040;BMP180;9652;49.014;12.052;2023-06-22T07:10:48;97893.00;;;25.40
19040;BMP180;9652;49.014;12.052;2023-06-22T07:13:15;97884.00;;;25.50
19040;BMP180;9652;49.014;12.052;2023-06-22T07:15:43;97884.00;;;25.50
19040;BMP180;9652;49.014;12.052;2023-06-22T07:18:10;97876.00;;;25.60
19040;BMP180;9652;49.014;12.052;2023-06-22T07:20:37;97879.00;;;25.70
19040;BMP180;9652;49.014;12.052;2023-06-22T07:23:06;97872.00;;;25.80
19040;BMP180;9652;49.014;12.052;2023-06-22T07:25:33;97884.00;;;25.90
19040;BMP180;9652;49.014;12.052;2023-06-22T07:28:04;97882.00;;;25.90
19040;BMP180;9652;49.014;12.052;2023-06-22T07:30:32;97877.00;;;26.00
19040;BMP180;9652;49.014;12.052;2023-06-22T07:33:01;97876.00;;;26.10
19040;BMP180;9652;49.014;12.052;2023-06-22T07:35:30;97883.00;;;26.20
19040;BMP180;9652;49.014;12.052;2023-06-22T07:37:57;97881.00;;;26.30
19040;BMP180;9652;49.014;12.052;2023-06-22T07:40:25;97875.00;;;26.30
19040;BMP180;9652;49.014;12.052;2023-06-22T07:42:52;97873.00;;;26.40
19040;BMP180;9652;49.014;12.052;2023-06-22T07:45:20;97864.00;;;26.50
19040;BMP180;9652;49.014;12.052;2023-06-22T07:47:47;97871.00;;;26.60
19040;BMP180;9652;49.014;12.052;2023-06-22T07:50:14;97863.00;;;26.50
19040;BMP180;9652;49.014;12.052;2023-06-22T07:52:41;97861.00;;;26.80
19040;BMP180;9652;49.014;12.052;2023-06-22T07:55:08;97857.00;;;26.90
19040;BMP180;9652;49.014;12.052;2023-06-22T07:57:37;97859.00;;;27.00
19040;BMP180;9652;49.014;12.052;2023-06-22T08:00:06;97870.00;;;27.10
19040;BMP180;9652;49.014;12.052;2023-06-22T08:02:39;97856.00;;;27.20
19040;BMP180;9652;49.014;12.052;2023-06-22T08:05:07;97847.00;;;27.30
19040;BMP180;9652;49.014;12.052;2023-06-22T08:07:35;97855.00;;;27.40
19040;BMP180;9652;49.014;12.052;2023-06-22T08:10:04;97857.00;;;27.50
19040;BMP180;9652;49.014;12.052;2023-06-22T08:12:31;97863.00;;;27.60
19040;BMP180;9652;49.014;12.052;2023-06-22T08:15:00;97860.00;;;27.70
19040;BMP180;9652;49.014;12.052;2023-06-22T08:17:27;97855.00;;;27.80
19040;BMP180;9652;49.014;12.052;2023-06-22T08:19:54;97851.00;;;27.90
19040;BMP180;9652;49.014;12.052;2023-06-22T08:22:21;97855.00;;;28.00
19040;BMP180;9652;49.014;12.052;2023-06-22T08:24:48;97857.00;;;28.10
19040;BMP180;9652;49.014;12.052;2023-06-22T08:27:16;97855.00;;;28.20
19040;BMP180;9652;49.014;12.052;2023-06-22T08:29:45;97849.00;;;28.30
19040;BMP180;9652;49.014;12.052;2023-06-22T08:32:13;97847.00;;;28.50
19040;BMP180;9652;49.014;12.052;2023-06-22T08:34:40;97844.00;;;28.60
19040;BMP180;9652;49.014;12.052;2023-06-22T08:37:09;97844.00;;;28.70
19040;BMP180;9652;49.014;12.052;2023-06-22T08:39:36;97843.00;;;28.80
19040;BMP180;9652;49.014;12.052;2023-06-22T08:42:03;97842.00;;;28.90
19040;BMP180;9652;49.014;12.052;2023-06-22T08:44:31;97837.00;;;29.00
19040;BMP180;9652;49.014;12.052;2023-06-22T08:46:58;97845.00;;;29.10
19040;BMP180;9652;49.014;12.052;2023-06-22T08:49:26;97855.00;;;29.20
19040;BMP180;9652;49.014;12.052;2023-06-22T08:51:53;97851.00;;;29.30
19040;BMP180;9652;49.014;12.052;2023-06-22T08:54:22;97850.00;;;29.40
19040;BMP180;9652;49.014;12.052;2023-06-22T08:56:49;97846.00;;;29.50
19040;BMP180;9652;49.014;12.052;2023-06-22T08:59:16;97845.00;;;29.60
19040;BMP180;9652;49.014;12.052;2023-06-22T09:01:43;97842.00;;;29.60
19040;BMP180;9652;49.014;12.052;2023-06-22T09:04:15;97840.00;;;29.70
19040;BMP180;9652;49.014;12.052;2023-06-22T09:06:43;97846.00;;;29.80
19040;BMP180;9652;49.014;12.052;2023-06-22T09:09:12;97846.00;;;29.90
19040;BMP180;9652;49.014;12.052;2023-06-22T09:11:40;97848.00;;;29.90
19040;BMP180;9652;49.014;12.052;2023-06-22T09:14:07;97854.00;;;30.00
19040;BMP180;9652;49.014;12.052;2023-06-22T09:16:34;97854.00;;;30.10
19040;BMP180;9652;49.014;12.052;2023-06-22T09:19:01;97846.00;;;30.20
19040;BMP180;9652;49.014;12.052;2023-06-22T09:21:28;97846.00;;;30.20
19040;BMP180;9652;49.014;12.052;2023-06-22T09:23:57;97849.00;;;30.30
19040;BMP180;9652;49.014;12.052;2023-06-22T09:26:24;97847.00;;;30.40
19040;BMP180;9652;49.014;12.052;2023-06-22T09:28:51;97839.00;;;30.40
19040;BMP180;9652;49.014;12.052;2023-06-22T09:31:18;97830.00;;;30.50
19040;BMP180;9652;49.014;12.052;2023-06-22T09:33:52;97834.00;;;30.60
19040;BMP180;9652;49.014;12.052;2023-06-22T09:36:19;97828.00;;;30.60
19040;BMP180;9652;49.014;12.052;2023-06-22T09:38:48;97837.00;;;30.70
19040;BMP180;9652;49.014;12.052;2023-06-22T09:41:23;97832.00;;;30.70
19040;BMP180;9652;49.014;12.052;2023-06-22T09:43:50;97829.00;;;30.80
19040;BMP180;9652;49.014;12.052;2023-06-22T09:46:18;97819.00;;;30.80
19040;BMP180;9652;49.014;12.052;2023-06-22T09:48:47;97818.00;;;30.90
19040;BMP180;9652;49.014;12.052;2023-06-22T09:51:14;97825.00;;;31.00
19040;BMP180;9652;49.014;12.052;2023-06-22T09:53:41;97825.00;;;31.00
19040;BMP180;9652;49.014;12.052;2023-06-22T09:56:09;97818.00;;;31.10
19040;BMP180;9652;49.014;12.052;2023-06-22T09:58:42;97820.00;;;31.10
19040;BMP180;9652;49.014;12.052;2023-06-22T10:01:09;97818.00;;;31.20
19040;BMP180;9652;49.014;12.052;2023-06-22T10:03:37;97821.00;;;31.30
19040;BMP180;9652;49.014;12.052;2023-06-22T10:06:04;97813.00;;;31.30
19040;BMP180;9652;49.014;12.052;2023-06-22T10:08:31;97815.00;;;31.40
19040;BMP180;9652;49.014;12.052;2023-06-22T10:10:58;97807.00;;;31.50
19040;BMP180;9652;49.014;12.052;2023-06-22T10:13:25;97801.00;;;31.50
19040;BMP180;9652;49.014;12.052;2023-06-22T10:15:53;97800.00;;;31.60
19040;BMP180;9652;49.014;12.052;2023-06-22T10:18:21;97798.00;;;31.70
19040;BMP180;9652;49.014;12.052;2023-06-22T10:20:50;97787.00;;;31.70
19040;BMP180;9652;49.014;12.052;2023-06-22T10:23:18;97806.00;;;31.80
19040;BMP180;9652;49.014;12.052;2023-06-22T10:25:45;97797.00;;;31.80
19040;BMP180;9652;49.014;12.052;2023-06-22T10:28:12;97795.00;;;31.90
19040;BMP180;9652;49.014;12.052;2023-06-22T10:30:39;97785.00;;;32.00
19040;BMP180;9652;49.014;12.052;2023-06-22T10:33:09;97782.00;;;32.00
19040;BMP180;9652;49.014;12.052;2023-06-22T10:35:36;97778.00;;;32.10
19040;BMP180;9652;49.014;12.052;2023-06-22T10:38:04;97775.00;;;32.10
19040;BMP180;9652;49.014;12.052;2023-06-22T10:40:32;97768.00;;;32.20
19040;BMP180;9652;49.014;12.052;2023-06-22T10:42:59;97769.00;;;32.30
19040;BMP180;9652;49.014;12.052;2023-06-22T10:45:26;97768.00;;;32.30
19040;BMP180;9652;49.014;12.052;2023-06-22T10:47:54;97758.00;;;32.40
19040;BMP180;9652;49.014;12.052;2023-06-22T10:50:22;97757.00;;;32.50
19040;BMP180;9652;49.014;12.052;2023-06-22T10:52:50;97749.00;;;32.60
19040;BMP180;9652;49.014;12.052;2023-06-22T10:55:17;97749.00;;;32.60
19040;BMP180;9652;49.014;12.052;2023-06-22T10:57:44;97759.00;;;32.70
19040;BMP180;9652;49.014;12.052;2023-06-22T11:00:14;97738.00;;;32.70
19040;BMP180;9652;49.014;12.052;2023-06-22T11:02:42;97741.00;;;32.80
19040;BMP180;9652;49.014;12.052;2023-06-22T11:05:09;97741.00;;;32.90
19040;BMP180;9652;49.014;12.052;2023-06-22T11:07:37;97741.00;;;33.00
19040;BMP180;9652;49.014;12.052;2023-06-22T11:10:06;97744.00;;;33.00
19040;BMP180;9652;49.014;12.052;2023-06-22T11:12:34;97746.00;;;33.10
19040;BMP180;9652;49.014;12.052;2023-06-22T11:15:01;97730.00;;;33.10
19040;BMP180;9652;49.014;12.052;2023-06-22T11:17:28;97727.00;;;33.20
19040;BMP180;9652;49.014;12.052;2023-06-22T11:19:55;97723.00;;;33.20
19040;BMP180;9652;49.014;12.052;2023-06-22T11:22:22;97701.00;;;33.30
19040;BMP180;9652;49.014;12.052;2023-06-22T11:24:51;97719.00;;;33.40
19040;BMP180;9652;49.014;12.052;2023-06-22T11:27:18;97716.00;;;33.40
19040;BMP180;9652;49.014;12.052;2023-06-22T11:29:45;97711.00;;;33.50
19040;BMP180;9652;49.014;12.052;2023-06-22T11:32:12;97714.00;;;33.60
19040;BMP180;9652;49.014;12.052;2023-06-22T11:34:40;97709.00;;;33.70
19040;BMP180;9652;49.014;12.052;2023-06-22T11:37:07;97716.00;;;33.80
19040;BMP180;9652;49.014;12.052;2023-06-22T11:39:34;97715.00;;;33.80
19040;BMP180;9652;49.014;12.052;2023-06-22T11:42:02;97711.00;;;33.90
19040;BMP180;9652;49.014;12.052;2023-06-22T11:44:29;97708.00;;;34.00
19040;BMP180;9652;49.014;12.052;2023-06-22T11:46:56;97710.00;;;34.10
19040;BMP180;9652;49.014;12.052;2023-06-22T11:49:23;97705.00;;;34.20
19040;BMP180;9652;49.014;12.052;2023-06-22T11:51:50;97710.00;;;34.30
19040;BMP180;9652;49.014;12.052;2023-06-22T11:54:17;97711.00;;;34.40
19040;BMP180;9652;49.014;12.052;2023-06-22T11:56:44;97703.00;;;34.40
19040;BMP180;9652;49.014;12.052;2023-06-22T11:59:13;97710.00;;;34.50
19040;BMP180;9652;49.014;12.052;2023-06-22T12:01:40;97702.00;;;34.50
19040;BMP180;9652;49.014;12.052;2023-06-22T12:04:07;97685.00;;;34.60
19040;BMP180;9652;49.014;12.052;2023-06-22T12:06:38;97696.00;;;34.60
19040;BMP180;9652;49.014;12.052;2023-06-22T12:09:08;97696.00;;;34.60
19040;BMP180;9652;49.014;12.052;2023-06-22T12:11:34;97695.00;;;34.70
19040;BMP180;9652;49.014;12.052;2023-06-22T12:14:02;97684.00;;;34.70
19040;BMP180;9652;49.014;12.052;2023-06-22T12:16:30;97690.00;;;34.70
19040;BMP180;9652;49.014;12.052;2023-06-22T12:18:57;97686.00;;;34.70
19040;BMP180;9652;49.014;12.052;2023-06-22T12:21:24;97684.00;;;34.70
19040;BMP180;9652;49.014;12.052;2023-06-22T12:23:51;97681.00;;;34.80
19040;BMP180;9652;49.014;12.052;2023-06-22T12:26:18;97678.00;;;34.80
19040;BMP180;9652;49.014;12.052;2023-06-22T12:28:45;97679.00;;;34.90
19040;BMP180;9652;49.014;12.052;2023-06-22T12:31:12;97674.00;;;34.90
19040;BMP180;9652;49.014;12.052;2023-06-22T12:33:41;97670.00;;;34.90
19040;BMP180;9652;49.014;12.052;2023-06-22T12:36:08;97669.00;;;35.00
19040;BMP180;9652;49.014;12.052;2023-06-22T12:38:35;97676.00;;;35.00
19040;BMP180;9652;49.014;12.052;2023-06-22T12:41:02;97664.00;;;35.00
19040;BMP180;9652;49.014;12.052;2023-06-22T12:43:29;97667.00;;;35.00
19040;BMP180;9652;49.014;12.052;2023-06-22T12:45:56;97668.00;;;35.10
19040;BMP180;9652;49.014;12.052;2023-06-22T12:48:25;97664.00;;;35.20
19040;BMP180;9652;49.014;12.052;2023-06-22T12:50:53;97647.00;;;35.20
19040;BMP180;9652;49.014;12.052;2023-06-22T12:53:20;97662.00;;;35.30
19040;BMP180;9652;49.014;12.052;2023-06-22T12:55:49;97656.00;;;35.30
19040;BMP180;9652;49.014;12.052;2023-06-22T12:58:16;97653.00;;;35.40
19040;BMP180;9652;49.014;12.052;2023-06-22T13:00:43;97638.00;;;35.50
19040;BMP180;9652;49.014;12.052;2023-06-22T13:03:10;97652.00;;;35.50
19040;BMP180;9652;49.014;12.052;2023-06-22T13:05:37;97649.00;;;35.60
19040;BMP180;9652;49.014;12.052;2023-06-22T13:08:05;97641.00;;;35.70
19040;BMP180;9652;49.014;12.052;2023-06-22T13:10:34;97644.00;;;35.80
19040;BMP180;9652;49.014;12.052;2023-06-22T13:13:01;97641.00;;;35.90
19040;BMP180;9652;49.014;12.052;2023-06-22T13:15:28;97635.00;;;36.10
19040;BMP180;9652;49.014;12.052;2023-06-22T13:17:55;97633.00;;;36.20
19040;BMP180;9652;49.014;12.052;2023-06-22T13:20:22;97631.00;;;36.40
19040;BMP180;9652;49.014;12.052;2023-06-22T13:22:49;97627.00;;;36.50
19040;BMP180;9652;49.014;12.052;2023-06-22T13:25:18;97635.00;;;36.90
19040;BMP180;9652;49.014;12.052;2023-06-22T13:27:47;97630.00;;;37.20
19040;BMP180;9652;49.014;12.052;2023-06-22T13:30:15;97635.00;;;37.60
19040;BMP180;9652;49.014;12.052;2023-06-22T13:32:42;97621.00;;;37.80
19040;BMP180;9652;49.014;12.052;2023-06-22T13:35:09;97625.00;;;37.90
19040;BMP180;9652;49.014;12.052;2023-06-22T13:37:37;97605.00;;;38.00
19040;BMP180;9652;49.014;12.052;2023-06-22T13:40:05;97596.00;;;38.10
19040;BMP180;9652;49.014;12.052;2023-06-22T13:42:34;97600.00;;;38.30
19040;BMP180;9652;49.014;12.052;2023-06-22T13:45:02;97591.00;;;38.50
19040;BMP180;9652;49.014;12.052;2023-06-22T13:47:29;97584.00;;;38.60
19040;BMP180;9652;49.014;12.052;2023-06-22T13:49:56;97589.00;;;38.70
19040;BMP180;9652;49.014;12.052;2023-06-22T13:52:24;97591.00;;;38.80
19040;BMP180;9652;49.014;12.052;2023-06-22T13:54:51;97594.00;;;39.00
19040;BMP180;9652;49.014;12.052;2023-06-22T13:57:18;97597.00;;;39.20
19040;BMP180;9652;49.014;12.052;2023-06-22T13:59:47;97601.00;;;39.30
19040;BMP180;9652;49.014;12.052;2023-06-22T14:02:14;97593.00;;;39.50
19040;BMP180;9652;49.014;12.052;2023-06-22T14:04:41;97585.00;;;39.60
19040;BMP180;9652;49.014;12.052;2023-06-22T14:07:08;97582.00;;;39.70
19040;BMP180;9652;49.014;12.052;2023-06-22T14:09:35;97580.00;;;39.60
19040;BMP180;9652;49.014;12.052;2023-06-22T14:12:06;97578.00;;;39.50
19040;BMP180;9652;49.014;12.052;2023-06-22T14:14:34;97571.00;;;39.40